Latest Weather Observations for Yanco

IDN60801

Issued at 9:03 am EST Tuesday 26 May 2015 (issued every 30 minutes, with the page automatically refreshed every 10 minutes)

About weather observations | Map of weather stations | Latest weather observations for NSW | Other Formats
Station Details ID: 074037 Name: YANCO AGRICULTURAL INSTITUTE Lat: -34.62 Lon: 146.43 Height: 164.0 m
Data from the previous 72 hours. | See also: Recent months at Yanco
Date/Time
EST
Temp
°C
App
Temp
°C
Dew
Point
Rel
Hum
%
Delta-T
°C
Wind Press
QNH
hPa
Press
MSL
hPa
Rain
since 9 am
mm
Dir
 
Spd
km/h
Gust
km/h
Spd
kts
Gust
kts
26/09:00am 9.1 6.2 6.4 83 1.3 E 11 13 6 7 - - 0.0
26/08:30am 8.6 5.6 5.9 83 1.2 E 11 13 6 7 - - 0.0
26/08:00am 7.9 4.4 5.5 85 1.1 E 13 15 7 8 - - 0.0
26/07:30am 7.4 3.8 5.2 86 1.0 E 13 15 7 8 - - 0.0
26/07:00am 7.4 4.3 5.4 87 0.9 E 11 13 6 7 - - 0.0
26/06:30am 7.5 3.2 5.1 85 1.1 E 17 19 9 10 - - 0.0
26/06:00am 7.2 3.2 4.9 85 1.0 E 15 17 8 9 - - 0.0
26/05:30am 7.4 3.4 4.7 83 1.2 E 15 17 8 9 - - 0.0
26/05:00am 7.6 3.6 4.7 82 1.3 E 15 17 8 9 - - 0.0
26/04:30am 7.4 3.7 4.7 83 1.2 E 13 13 7 7 - - 0.0
26/04:00am 7.9 3.5 4.7 80 1.4 E 17 19 9 10 - - 0.0
26/03:30am 8.2 4.9 4.8 79 1.5 ESE 11 13 6 7 - - 0.0
26/03:00am 8.1 4.8 4.7 79 1.5 ESE 11 13 6 7 - - 0.0
26/02:30am 8.7 4.7 5.1 78 1.6 E 15 17 8 9 - - 0.0
26/02:00am 8.8 4.8 5.0 77 1.7 E 15 17 8 9 - - 0.0
26/01:30am 8.8 5.2 5.0 77 1.7 E 13 15 7 8 - - 0.0
26/01:00am 9.2 5.6 5.0 75 1.9 E 13 15 7 8 - - 0.0
26/12:30am 9.4 5.8 5.0 74 2.0 E 13 15 7 8 - - 0.0
26/12:00am 9.2 6.0 5.0 75 1.9 E 11 11 6 6 - - 0.0
 
Date/Time
EST
Temp
°C
App
Temp
°C
Dew
Point
Rel
Hum
%
Delta-T
°C
Wind Press
QNH
hPa
Press
MSL
hPa
Rain
since 9 am
mm
Dir
 
Spd
km/h
Gust
km/h
Spd
kts
Gust
kts
25/11:30pm 11.0 8.6 5.1 67 2.7 ENE 7 9 4 5 - - 0.0
25/11:00pm 10.7 7.9 5.0 68 2.6 ENE 9 11 5 6 - - 0.0
25/10:30pm 10.0 7.7 5.0 71 2.3 NE 6 7 3 4 - - 0.0
25/10:00pm 10.3 7.1 4.9 69 2.5 E 11 13 6 7 - - 0.0
25/09:30pm 10.7 7.1 5.0 68 2.6 E 13 13 7 7 - - 0.0
25/09:00pm 11.6 8.4 5.0 64 3.0 E 11 13 6 7 - - 0.0
25/08:30pm 11.6 8.4 5.3 65 2.9 E 11 11 6 6 - - 0.0
25/08:00pm 12.0 8.9 5.4 64 3.1 E 11 13 6 7 - - 0.0
25/07:30pm 12.7 10.0 5.4 61 3.4 ENE 9 11 5 6 - - 0.0
25/07:00pm 12.8 10.5 5.5 61 3.4 ENE 7 9 4 5 - - 0.0
25/06:30pm 13.4 11.1 5.8 60 3.6 ENE 7 7 4 4 - - 0.0
25/06:00pm 13.6 11.5 5.7 59 3.8 ENE 6 7 3 4 - - 0.0
25/05:30pm 14.6 12.3 5.9 56 4.2 E 7 9 4 5 - - 0.0
25/05:00pm 15.4 13.1 5.9 53 4.6 ENE 7 9 4 5 - - 0.0
25/04:30pm 17.1 15.0 5.7 47 5.6 E 6 9 3 5 - - 0.0
25/04:00pm 17.2 14.8 5.2 45 5.8 SE 7 13 4 7 - - 0.0
25/03:30pm 17.9 15.9 6.1 46 5.8 E 6 11 3 6 - - 0.0
25/03:00pm 17.9 15.8 5.8 45 6.0 NE 6 11 3 6 - - 0.0
25/02:30pm 18.1 16.7 5.7 44 6.1 NW 2 6 1 3 - - 0.0
25/02:00pm 17.7 16.5 6.3 47 5.7 W 2 4 1 2 - - 0.0
25/01:30pm 17.0 15.2 5.6 47 5.6 N 4 9 2 5 - - 0.0
25/01:00pm 17.1 14.9 6.0 48 5.5 NNE 7 11 4 6 - - 0.0
25/12:30pm 17.2 15.2 6.4 49 5.4 NW 6 9 3 5 - - 0.0
25/12:00pm 16.7 15.1 7.9 56 4.5 N 6 9 3 5 - - 0.0
25/11:30am 15.4 13.0 7.2 58 4.1 NNW 9 13 5 7 - - 0.0
25/11:00am 15.2 12.9 7.5 60 3.8 NNW 9 13 5 7 - - 0.0
25/10:30am 14.4 12.7 7.7 64 3.3 N 6 9 3 5 - - 0.0
25/10:00am 12.7 11.4 7.6 71 2.5 NE 4 7 2 4 - - 0.0
25/09:30am 11.1 9.7 7.2 77 1.9 NE 4 6 2 3 - - 0.0
25/09:00am 9.6 7.0 6.3 80 1.5 ENE 9 13 5 7 - - 0.2
25/08:30am 9.0 6.7 5.9 81 1.4 ENE 7 9 4 5 - - 0.2
25/08:00am 8.6 6.9 5.7 82 1.3 ENE 4 9 2 5 - - 0.2
25/07:30am 8.3 5.9 5.4 82 1.3 ENE 7 9 4 5 - - 0.2
25/07:00am 8.7 6.3 5.4 80 1.5 ENE 7 11 4 6 - - 0.2
25/06:30am 8.0 5.7 5.5 84 1.1 E 7 9 4 5 - - 0.2
25/06:00am 8.0 4.9 5.5 84 1.1 E 11 15 6 8 - - 0.2
25/05:30am 7.9 5.2 5.5 85 1.1 E 9 11 5 6 - - 0.2
25/05:00am 8.1 5.5 5.9 86 1.0 E 9 11 5 6 - - 0.2
25/04:30am 8.2 6.0 6.0 86 1.0 E 7 9 4 5 - - 0.2
25/04:00am 8.3 5.3 6.1 86 1.0 E 11 17 6 9 - - 0.2
25/03:30am 8.8 5.5 6.4 85 1.1 E 13 13 7 7 - - 0.2
25/03:00am 8.8 5.9 6.3 84 1.2 E 11 15 6 8 - - 0.2
25/02:30am 9.7 6.7 6.2 79 1.6 E 11 15 6 8 - - 0.2
25/02:00am 9.2 6.3 6.3 82 1.4 E 11 15 6 8 - - 0.2
25/01:30am 9.2 5.5 6.3 82 1.4 E 15 17 8 9 - - 0.2
25/01:00am 9.3 5.2 6.2 81 1.4 E 17 19 9 10 - - 0.2
25/12:30am 9.4 5.2 5.9 79 1.6 E 17 20 9 11 - - 0.2
25/12:00am 10.2 6.5 6.4 77 1.8 E 15 19 8 10 - - 0.2
 
Date/Time
EST
Temp
°C
App
Temp
°C
Dew
Point
Rel
Hum
%
Delta-T
°C
Wind Press
QNH
hPa
Press
MSL
hPa
Rain
since 9 am
mm
Dir
 
Spd
km/h
Gust
km/h
Spd
kts
Gust
kts
24/11:30pm 10.1 6.4 6.1 76 1.9 ESE 15 17 8 9 - - 0.2
24/11:00pm 10.2 6.8 6.0 75 2.0 E 13 15 7 8 - - 0.2
24/10:30pm 10.8 7.9 6.4 74 2.1 ESE 11 13 6 7 - - 0.2
24/10:00pm 10.2 8.0 6.0 75 2.0 SE 7 11 4 6 - - 0.2
24/09:30pm 10.7 8.1 5.9 72 2.2 SE 9 9 5 5 - - 0.2
24/09:00pm 9.6 7.5 6.0 78 1.7 SW 6 6 3 3 - - 0.2
24/08:30pm 11.1 8.4 5.8 70 2.5 SE 9 9 5 5 - - 0.2
24/08:00pm 12.0 9.4 6.1 67 2.8 SE 9 11 5 6 - - 0.2
24/07:30pm 11.9 8.9 6.2 68 2.7 SE 11 13 6 7 - - 0.2
24/07:00pm 12.2 9.6 6.3 67 2.8 SE 9 11 5 6 - - 0.2
24/06:30pm 12.6 10.4 6.2 65 3.1 SE 7 9 4 5 - - 0.2
24/06:00pm 13.2 11.0 6.3 63 3.3 SE 7 9 4 5 - - 0.2
24/05:30pm 13.6 11.5 6.7 63 3.4 SE 7 9 4 5 - - 0.2
24/05:00pm 14.4 12.6 7.0 61 3.6 SE 6 6 3 3 - - 0.2
24/04:30pm 15.1 13.2 6.9 58 4.0 ESE 6 6 3 3 - - 0.2
24/04:00pm 15.6 13.6 6.3 54 4.5 SSE 6 6 3 3 - - 0.2
24/03:30pm 16.1 14.0 5.7 50 5.0 E 6 9 3 5 - - 0.2
24/03:00pm 16.4 14.2 6.0 50 5.1 ESE 7 11 4 6 - - 0.2
24/02:30pm 16.4 14.2 6.0 50 5.1 E 7 13 4 7 - - 0.2
24/02:00pm 16.3 13.4 4.7 46 5.5 E 9 13 5 7 - - 0.2
24/01:30pm 16.2 13.8 5.2 48 5.3 ESE 7 11 4 6 - - 0.2
24/01:00pm 16.4 14.7 6.0 50 5.1 E 4 9 2 5 - - 0.2
24/12:30pm 15.6 13.8 5.5 51 4.9 SE 4 9 2 5 - - 0.0
24/12:00pm 15.5 13.9 6.2 54 4.5 S 4 6 2 3 - - 0.0
24/11:30am 15.6 14.4 6.3 54 4.5 NNE 2 6 1 3 - - 0.0
24/11:00am 14.4 13.0 7.2 62 3.6 ENE 4 6 2 3 - - 0.0
24/10:30am 13.3 12.1 8.0 70 2.6 ENE 4 6 2 3 - - 0.0
24/10:00am 11.3 9.6 7.6 78 1.8 ESE 6 7 3 4 - - 0.0
24/09:30am 10.3 8.5 7.2 81 1.5 E 6 7 3 4 - - 0.0
24/09:00am 9.2 8.3 5.9 80 1.5 CALM 0 0 0 0 - - 0.0
24/08:30am 8.2 7.4 6.3 88 0.9 CALM 0 2 0 1 - - 0.0
24/08:00am 7.0 4.9 5.9 93 0.5 E 6 6 3 3 - - 0.0
24/07:30am 6.0 3.6 5.4 96 0.3 E 7 7 4 4 - - 0.0
24/07:00am 5.3 3.1 5.2 99 0.0 ENE 6 7 3 4 - - 0.0
24/06:30am 5.4 2.6 5.1 98 0.1 ENE 9 11 5 6 - - 0.0
24/06:00am 4.4 2.5 2.9 90 0.6 ESE 2 2 1 1 - - 0.0
24/05:30am 6.2 3.0 5.3 94 0.4 E 11 13 6 7 - - 0.0
24/05:00am 6.2 3.3 4.5 89 0.7 E 9 11 5 6 - - 0.0
24/04:30am 6.3 3.3 4.0 85 1.0 E 9 13 5 7 - - 0.0
24/04:00am 6.9 3.0 5.2 89 0.8 E 15 17 8 9 - - 0.0
24/03:30am 5.4 3.5 2.6 82 1.2 ESE 2 7 1 4 - - 0.0
24/03:00am 7.1 3.5 4.9 86 1.0 ESE 13 15 7 8 - - 0.0
24/02:30am 7.0 3.8 5.0 87 0.9 E 11 13 6 7 - - 0.0
24/02:00am 7.5 4.3 5.0 84 1.1 ESE 11 13 6 7 - - 0.0
24/01:30am 8.1 5.4 5.4 83 1.2 ESE 9 11 5 6 - - 0.0
24/01:00am 8.3 5.6 5.6 83 1.2 ESE 9 9 5 5 - - 0.0
24/12:30am 7.1 5.2 4.8 85 1.0 ESE 4 4 2 2 - - 0.0
24/12:00am 8.8 5.6 5.2 78 1.6 SE 11 11 6 6 - - 0.0
 
Date/Time
EST
Temp
°C
App
Temp
°C
Dew
Point
Rel
Hum
%
Delta-T
°C
Wind Press
QNH
hPa
Press
MSL
hPa
Rain
since 9 am
mm
Dir
 
Spd
km/h
Gust
km/h
Spd
kts
Gust
kts
23/11:30pm 9.1 6.4 5.7 79 1.6 SE 9 11 5 6 - - 0.0
23/11:00pm 7.6 5.5 5.7 88 0.9 SE 6 9 3 5 - - 0.0
23/10:30pm 10.7 8.3 5.3 69 2.5 ESE 7 9 4 5 - - 0.0
23/10:00pm 11.2 8.8 5.3 67 2.7 E 7 9 4 5 - - 0.0
23/09:30pm 12.0 9.8 5.4 64 3.1 ESE 6 9 3 5 - - 0.0
23/09:00pm 12.0 9.6 5.4 64 3.1 ESE 7 9 4 5 - - 0.0
23/08:30pm 11.4 8.8 5.9 69 2.6 SE 9 11 5 6 - - 0.0
23/08:00pm 11.7 9.5 6.2 69 2.6 SE 7 7 4 4 - - 0.0
23/07:30pm 11.0 9.5 5.1 67 2.7 SSW 2 6 1 3 - - 0.0
23/07:00pm 12.8 11.2 6.2 64 3.2 SSE 4 7 2 4 - - 0.0
23/06:30pm 14.3 12.1 5.4 55 4.2 ESE 6 6 3 3 - - 0.0
23/06:00pm 15.1 13.2 4.8 50 4.9 SE 4 6 2 3 - - 0.0
23/05:30pm 15.2 13.3 5.1 51 4.8 SSE 4 4 2 2 - - 0.0
23/05:00pm 15.8 14.5 6.0 52 4.8 SSE 2 4 1 2 - - 0.0
23/04:30pm 16.8 15.1 6.0 49 5.3 S 4 6 2 3 - - 0.0
23/04:00pm 17.6 15.8 5.5 45 5.9 SW 4 7 2 4 - - 0.0
23/03:30pm 17.4 16.3 5.0 44 6.0 CALM 0 6 0 3 - - 0.0
23/03:00pm 17.5 15.2 5.8 46 5.7 SSW 7 11 4 6 - - 0.0
23/02:30pm 17.4 15.2 6.0 47 5.6 W 7 15 4 8 - - 0.0
23/02:00pm 17.7 15.6 6.6 48 5.5 W 7 13 4 7 - - 0.0
23/01:30pm 17.0 14.3 5.6 47 5.6 WNW 9 15 5 8 - - 0.0
23/01:00pm 17.2 15.0 6.1 48 5.5 NW 7 15 4 8 - - 0.0
23/12:30pm 16.4 13.9 4.8 46 5.5 NNW 7 11 4 6 - - 0.0
23/12:00pm 16.0 13.6 5.3 49 5.1 NNW 7 9 4 5 - - 0.0
23/11:30am 15.2 12.4 5.1 51 4.8 N 9 17 5 9 - - 0.0
23/11:00am 14.4 11.9 6.5 59 3.8 N 9 15 5 8 - - 0.0
23/10:30am 13.4 11.5 6.7 64 3.3 NNW 6 9 3 5 - - 0.0
23/10:00am 12.7 11.3 7.4 70 2.6 NE 4 6 2 3 - - 0.0
23/09:30am 10.6 8.7 6.7 77 1.9 E 6 7 3 4 - - 0.0

Other Formats:

Comma delimited format used in spreadsheet applications
http://www.bom.gov.au/fwo/IDN60801/IDN60801.95705.axf

JavaScript Object Notation format (JSON) in row-major order
http://www.bom.gov.au/fwo/IDN60801/IDN60801.95705.json